Date,TemperatureHighF,TemperatureAvgF,TemperatureLowF,DewpointHighF,DewpointAvgF,DewpointLowF,HumidityHigh,HumidityAvg,HumidityLow,PressureMaxIn,PressureMinIn,WindSpeedMaxMPH,WindSpeedAvgMPH,GustSpeedMaxMPH,PrecipitationSumIn
2013-1-1,42.3,38.8,31.2,27.7,23.6,12.2,63,54,45,29.26,29.08,0,0,0,0.00
2013-1-2,35.5,28.4,24.3,12.8,10.3,6.7,57,46,38,29.43,29.22,0,0,0,0.00
2013-1-3,36.7,27.6,20.4,15.7,12.4,10.2,67,53,37,29.45,29.33,0,0,0,0.00
2013-1-4,39.1,33.3,26.8,18.9,17.6,14.8,61,53,43,29.38,29.24,0,0,0,0.00
2013-1-5,43.6,33.1,25.9,20.2,17.9,14.9,63,54,38,29.56,29.28,0,0,0,0.00
2013-1-6,50.2,37.1,30.7,35.4,26.3,19.8,82,66,43,29.50,29.23,0,0,0,0.00
2013-1-7,49.6,36.4,26.0,27.7,21.8,16.3,70,57,35,29.66,29.31,0,0,0,0.00
2013-1-8,51.2,35.6,23.9,30.0,23.5,15.5,75,63,43,29.68,29.59,0,0,0,0.00
2013-1-9,54.2,43.8,29.5,38.2,31.9,22.6,79,64,50,29.64,29.39,0,0,0,0.00
2013-1-10,52.9,42.7,32.1,31.1,23.5,19.9,64,47,32,29.79,29.51,0,0,0,0.00
2013-1-11,48.4,41.9,32.2,43.5,33.8,21.3,83,73,64,29.77,29.30,0,0,0,0.00
2013-1-12,49.1,46.7,44.2,44.1,41.9,39.4,85,83,82,29.42,29.29,0,0,0,0.00
2013-1-13,52.1,46.8,41.0,46.8,42.0,36.5,85,83,79,29.41,29.25,0,0,0,0.00
2013-1-14,58.6,51.6,40.4,52.9,43.6,30.9,86,75,45,29.53,29.19,0,0,0,0.00
2013-1-15,40.5,38.7,36.6,33.9,29.6,25.6,81,70,58,29.58,29.43,0,0,0,0.00
2013-1-16,42.6,38.1,35.7,37.8,32.9,29.0,83,82,74,29.44,29.03,0,0,0,0.00
2013-1-17,44.0,38.9,35.3,33.4,30.3,26.4,83,72,52,29.34,29.18,0,0,0,0.00
2013-1-18,36.3,30.4,22.6,29.3,13.1,2.6,78,50,28,29.76,29.23,0,0,0,0.00
2013-1-19,53.7,40.3,24.3,27.4,20.4,10.8,60,46,30,29.67,29.21,0,0,0,0.00
2013-1-20,57.4,45.4,33.0,28.4,21.3,8.0,54,39,24,29.29,28.97,0,0,0,0.00
2013-1-21,34.4,30.3,24.9,19.5,11.0,5.1,71,45,33,29.35,29.07,0,0,0,0.00
2013-1-22,25.0,19.2,13.4,15.7,-1.5,-9.3,69,40,27,29.48,29.09,0,0,0,0.00
2013-1-23,21.6,13.0,4.7,-1.9,-5.5,-10.3,62,44,33,29.53,29.42,0,0,0,0.00
2013-1-24,25.2,15.8,3.8,3.0,-3.0,-7.7,70,45,24,29.67,29.37,0,0,0,0.00
2013-1-25,25.5,17.4,9.1,11.9,1.2,-6.2,72,50,33,29.68,29.31,0,0,0,0.00
2013-1-26,28.5,18.7,7.2,10.2,4.4,-0.0,74,55,35,29.62,29.30,0,0,0,0.00
2013-1-27,36.1,22.3,9.0,11.0,5.8,-2.1,64,50,33,29.78,29.62,0,0,0,0.00
2013-1-28,35.9,29.2,17.7,28.7,20.2,5.6,75,69,59,29.75,29.26,0,0,0,0.00
2013-1-29,53.9,41.9,32.9,44.8,32.8,25.3,83,70,56,29.39,29.25,0,0,0,0.00
2013-1-30,63.9,54.7,42.0,53.5,43.9,32.1,77,67,59,29.31,28.64,0,0,0,0.00
2013-1-31,60.7,43.4,29.6,50.4,22.0,7.0,71,44,31,29.55,28.39,0,0,0,0.00
2013-2-1,32.5,28.1,22.5,16.4,6.7,0.5,62,41,28,29.96,29.55,0,0,0,0.00
2013-2-2,31.7,24.7,16.5,14.1,4.0,-0.0,64,42,27,30.03,29.75,0,0,0,0.00
2013-2-3,33.9,26.0,19.7,20.0,15.6,11.9,77,65,51,29.75,29.49,0,0,0,0.00
2013-2-4,31.7,25.9,20.4,17.5,8.4,4.7,69,48,34,29.72,29.54,0,0,0,0.00
2013-2-5,35.4,31.8,26.6,25.8,22.7,14.6,72,69,60,29.67,29.58,0,0,0,0.00
2013-2-6,41.4,33.2,24.6,25.1,19.2,12.2,72,58,40,30.35,29.61,15,0,15,0.00
2013-2-7,39.6,30.5,20.2,29.1,15.7,9.6,68,54,44,30.48,30.26,9,0,9,0.00
2013-2-8,42.5,38.3,29.4,35.1,30.4,22.8,76,73,65,30.26,29.58,28,5,28,0.00
2013-2-9,34.9,28.5,22.1,24.1,15.1,3.8,77,59,37,30.33,29.72,31,6,31,0.00
2013-2-10,40.6,26.3,11.5,21.0,10.0,-1.2,70,51,29,30.48,30.31,12,1,12,0.00
2013-2-11,55.5,46.8,30.7,50.4,40.8,21.0,88,80,67,30.34,29.64,30,3,30,0.00
2013-2-12,49.4,41.6,29.5,40.6,24.3,18.3,78,51,35,29.97,29.73,31,3,31,0.00
2013-2-13,46.7,34.3,24.2,29.1,23.7,16.8,79,66,48,29.96,29.65,12,1,12,0.00
2013-2-14,48.2,36.6,31.3,35.1,29.4,25.8,82,76,52,30.02,29.69,11,1,11,0.00
2013-2-15,58.9,42.2,29.9,38.6,31.1,24.9,83,66,38,30.03,29.91,13,2,13,0.00
2013-2-16,43.9,37.1,31.5,27.6,23.1,13.9,67,57,43,29.95,29.71,21,4,21,0.00
2013-2-17,34.4,28.7,20.1,14.9,3.2,-5.8,50,33,26,30.02,29.66,38,7,38,0.00
2013-2-18,38.9,26.5,18.1,8.2,2.0,-4.5,46,35,25,30.27,30.02,25,4,25,0.00
2013-2-19,52.2,40.7,26.2,42.7,28.7,7.8,84,63,43,30.22,29.68,22,3,22,0.00
2013-2-20,38.9,31.2,25.2,27.4,11.4,5.0,63,44,33,30.02,29.75,25,5,25,0.00
2013-2-21,37.6,29.3,23.0,11.7,9.3,6.0,54,43,33,30.27,30.00,32,6,32,0.00
2013-2-22,38.4,31.9,22.4,30.2,20.1,9.6,75,61,50,30.39,30.24,12,1,12,0.00
2013-2-23,45.9,41.5,36.6,41.5,36.5,29.4,85,82,75,30.25,29.76,21,3,21,0.00
2013-2-24,50.1,40.1,32.1,38.3,29.5,17.3,85,67,46,30.00,29.74,23,4,23,0.00
2013-2-25,45.4,37.0,28.2,26.4,21.9,16.1,65,55,41,30.23,29.99,14,1,14,0.00
2013-2-26,46.7,37.1,25.9,36.2,27.7,18.1,82,69,56,30.27,29.80,20,2,20,0.00
2013-2-27,55.0,47.2,41.3,49.1,39.6,32.7,86,75,54,29.81,29.49,22,3,22,0.00
2013-2-28,49.6,43.1,36.5,37.0,30.8,24.0,77,63,46,29.64,29.55,13,1,13,0.00
2013-3-1,46.4,39.4,31.6,29.8,25.4,22.1,78,58,42,29.78,29.62,23,3,23,0.00
2013-3-2,43.3,36.8,31.8,22.6,20.0,17.9,58,50,39,29.79,29.69,16,4,16,0.00
2013-3-3,39.7,33.4,28.3,18.4,15.6,13.4,57,48,38,29.77,29.68,20,4,20,0.00
2013-3-4,43.6,34.6,27.6,17.7,15.1,11.4,54,45,34,29.92,29.77,26,4,26,0.00
2013-3-5,50.7,36.6,28.2,29.2,20.9,16.1,76,54,35,30.02,29.91,16,2,16,0.00
2013-3-6,41.4,39.3,35.1,35.4,31.5,28.4,80,74,68,29.95,29.71,47,8,47,0.00
2013-3-7,40.9,36.4,33.4,31.2,29.3,27.7,81,75,62,30.06,29.85,24,6,24,0.00
2013-3-8,41.4,34.8,31.0,32.7,28.9,26.2,85,79,59,30.16,29.98,20,5,20,0.00
2013-3-9,60.0,42.5,29.4,26.3,21.7,15.9,71,47,19,30.31,30.14,18,4,18,0.00
2013-3-10,46.1,36.6,26.6,33.5,27.7,19.7,80,70,57,30.38,30.30,8,1,10,0.00
2013-3-11,54.4,43.3,29.0,46.4,36.6,23.5,85,77,66,30.32,30.09,14,2,14,0.00
2013-3-12,55.3,51.6,45.7,50.8,46.0,37.8,87,81,70,30.09,29.68,27,4,27,0.00
2013-3-13,52.6,43.4,34.8,39.1,27.3,20.8,76,55,31,29.91,29.81,18,2,18,0.00
2013-3-14,42.9,36.1,29.4,22.1,12.4,5.2,54,39,27,29.98,29.87,26,4,26,0.00
2013-3-15,50.1,38.9,28.0,22.2,14.7,5.8,46,37,29,30.01,29.73,17,3,17,0.00
2013-3-16,41.4,37.0,33.2,28.2,24.6,19.5,79,62,43,29.91,29.75,11,1,11,0.00
2013-3-17,40.2,33.9,27.5,28.3,19.7,13.6,82,58,37,30.29,29.91,22,3,22,0.00
2013-3-18,41.2,35.5,26.8,36.3,23.0,11.9,84,61,43,30.37,29.91,15,3,15,0.00
2013-3-19,51.1,41.9,38.0,37.6,33.6,16.1,85,74,40,29.91,29.69,19,4,19,0.00
2013-3-20,49.4,39.6,28.7,21.5,16.1,12.8,56,39,27,29.91,29.79,21,3,21,0.00
2013-3-21,38.5,33.2,29.3,26.1,19.7,10.4,75,58,38,29.80,29.64,14,2,14,0.00
2013-3-22,42.9,34.0,26.0,17.0,14.2,9.4,57,45,31,29.91,29.76,25,3,25,0.00
2013-3-23,49.0,38.0,27.6,18.4,16.3,14.5,60,43,28,29.94,29.82,25,3,25,0.00
2013-3-24,47.6,37.0,26.4,25.1,18.7,13.9,60,48,31,29.95,29.69,18,2,18,0.00
2013-3-25,39.6,36.2,32.5,30.9,28.6,24.8,83,74,57,29.69,29.43,30,3,30,0.00
2013-3-26,52.1,41.8,31.6,36.5,29.2,25.4,85,63,38,29.87,29.59,17,1,17,0.00
2013-3-27,53.7,43.1,33.5,28.0,24.7,19.8,69,50,27,30.00,29.87,20,3,21,0.00
2013-3-28,49.8,43.0,33.9,28.7,25.8,23.8,68,51,37,30.11,29.97,18,3,18,0.00
2013-3-29,56.9,44.6,34.7,27.8,24.7,22.4,65,47,28,30.16,30.06,18,2,18,0.00
2013-3-30,59.7,45.5,31.7,31.0,24.7,20.4,74,48,24,30.18,30.08,16,2,16,0.00
2013-3-31,54.6,45.3,32.4,45.4,33.7,23.6,85,65,47,30.15,29.69,21,2,21,0.00
2013-4-1,65.2,51.3,40.0,46.5,36.6,11.4,86,61,30,29.92,29.63,24,3,24,0.00
2013-4-2,45.9,37.5,25.8,18.0,11.8,8.7,62,36,24,30.10,29.92,29,3,29,0.00
2013-4-3,48.4,39.3,28.0,13.7,10.7,6.7,49,31,22,30.29,30.09,25,4,25,0.00
2013-4-4,49.2,38.3,25.3,24.9,16.7,6.7,53,42,28,30.40,30.10,16,2,16,0.00
2013-4-5,66.3,48.9,37.4,38.5,26.4,18.5,69,46,20,30.11,29.71,20,3,20,0.00
2013-4-6,49.2,41.1,30.9,22.7,17.8,12.1,62,40,27,30.33,29.99,20,4,20,0.00
2013-4-7,58.2,46.7,29.9,37.8,31.2,17.9,68,56,41,30.32,30.02,21,4,21,0.00
2013-4-8,71.0,59.3,47.8,46.7,41.0,34.9,69,51,36,30.08,29.97,16,2,16,0.00
2013-4-9,85.3,70.9,56.7,50.9,47.2,40.8,69,46,23,29.99,29.91,21,3,21,0.00
2013-4-10,69.9,62.6,52.7,52.3,47.2,42.9,80,58,45,29.95,29.79,23,2,23,0.00
2013-4-11,61.6,54.7,46.5,56.6,47.9,40.1,84,78,66,30.00,29.78,18,2,18,0.00
2013-4-12,46.4,44.7,43.2,42.3,40.6,38.8,86,85,80,29.98,29.68,23,4,23,0.00
2013-4-13,59.1,48.1,39.6,44.5,38.9,33.1,86,72,40,29.98,29.71,15,2,15,0.00
2013-4-14,62.9,52.0,39.0,44.9,33.7,24.9,85,55,26,30.20,29.97,25,2,25,0.00
2013-4-15,57.6,50.0,46.2,39.5,33.6,28.1,71,54,45,30.37,30.19,8,2,13,0.00
2013-4-16,67.5,56.8,47.9,52.5,46.6,38.8,77,69,56,30.36,30.14,20,4,20,0.00
2013-4-17,67.3,58.9,45.4,53.6,46.1,37.1,83,64,44,30.28,30.10,15,2,15,0.00
2013-4-18,58.2,52.2,42.0,54.1,44.9,35.3,88,76,63,30.34,30.09,13,2,13,0.00
2013-4-19,74.0,65.1,56.0,60.4,57.6,52.5,89,77,60,30.10,29.68,30,5,30,0.00
2013-4-20,65.3,53.5,47.4,59.2,34.4,21.5,82,52,29,30.29,29.68,19,4,19,0.00
2013-4-21,54.2,44.5,34.2,26.6,22.3,15.9,69,42,32,30.61,30.28,19,3,19,0.00
2013-4-22,49.3,44.6,33.2,36.7,31.9,23.6,73,61,52,30.63,30.45,22,3,22,0.00
2013-4-23,50.1,45.5,42.6,39.9,36.7,33.0,81,71,66,30.46,30.10,24,4,24,0.00
2013-4-24,67.8,52.6,37.3,48.8,41.5,31.8,83,67,49,30.10,29.85,17,3,17,0.00
2013-4-25,63.9,53.3,42.8,46.2,32.7,25.5,70,47,26,30.27,29.89,20,4,20,0.00
2013-4-26,64.8,51.6,36.9,35.5,31.2,25.5,70,48,29,30.39,30.27,14,2,14,0.00
2013-4-27,65.5,52.4,37.0,36.1,30.6,27.2,75,46,24,30.42,30.30,12,1,12,0.00
2013-4-28,66.8,53.2,36.5,44.4,33.2,22.5,74,49,27,30.33,30.22,14,2,14,0.00
2013-4-29,56.2,53.8,51.1,48.5,46.5,44.1,83,77,65,30.24,30.16,14,2,14,0.00
2013-4-30,65.3,56.0,44.7,48.6,42.9,34.3,82,63,40,30.32,30.17,13,2,13,0.00
2013-5-1,62.8,50.1,36.4,44.3,37.0,27.0,78,62,46,30.47,30.31,15,1,15,0.00
2013-5-2,65.9,52.0,36.1,42.6,35.7,26.8,75,56,37,30.46,30.33,11,1,11,0.00
2013-5-3,59.7,52.4,43.1,39.9,36.6,31.9,69,56,39,30.45,30.35,19,3,19,0.00
2013-5-4,61.6,51.7,42.2,42.8,37.3,33.1,72,59,44,30.36,30.26,14,2,14,0.00
2013-5-5,58.4,50.3,45.9,39.3,36.1,32.6,70,58,48,30.29,30.22,18,2,18,0.00
2013-5-6,61.2,52.4,48.6,45.9,42.1,39.3,75,68,52,30.26,30.15,13,2,13,0.00
2013-5-7,63.9,55.6,50.1,51.2,46.2,42.2,79,71,58,30.16,30.07,13,2,13,0.00
2013-5-8,74.3,61.2,56.2,61.7,51.5,47.4,83,71,54,30.08,29.95,18,2,18,0.00
2013-5-9,74.2,61.8,55.4,58.5,52.4,48.1,88,73,43,30.00,29.89,17,1,17,0.00
2013-5-10,78.3,65.6,53.4,59.9,52.9,48.6,88,66,44,30.01,29.88,15,2,15,0.00
2013-5-11,77.3,65.6,61.5,64.3,58.8,50.7,88,79,57,29.92,29.70,16,2,16,0.00
2013-5-12,69.5,61.0,46.0,58.9,42.8,24.6,87,56,24,29.96,29.67,26,3,26,0.00
2013-5-13,58.1,48.7,36.5,33.3,27.3,21.8,74,46,27,30.10,29.96,20,2,20,0.00
2013-5-14,64.1,49.9,34.7,30.2,26.3,20.9,68,42,22,30.14,30.03,18,2,18,0.00
2013-5-15,75.1,60.8,45.7,55.5,45.8,28.4,73,58,44,30.09,29.69,19,2,19,0.00
2013-5-16,77.8,66.2,55.4,58.5,51.7,41.6,84,63,30,29.85,29.70,12,1,12,0.00
2013-5-17,78.8,64.2,51.5,56.3,44.0,38.3,77,51,27,30.19,29.83,15,2,15,0.00
2013-5-18,65.8,57.6,49.8,52.8,48.9,41.6,83,73,61,30.31,30.19,13,1,13,0.00
2013-5-19,60.4,57.6,55.4,56.2,53.2,50.6,87,85,83,30.29,30.15,13,2,13,0.00
2013-5-20,78.0,67.8,60.2,67.4,61.6,56.0,88,81,61,30.17,29.97,9,1,9,0.00
2013-5-21,87.8,74.4,63.4,67.8,63.7,58.1,88,71,47,29.98,29.85,14,2,14,0.00
2013-5-22,87.3,73.7,66.5,71.0,66.0,62.3,90,78,54,29.92,29.83,14,2,14,0.00
2013-5-23,81.2,72.5,65.9,66.7,63.0,58.3,84,73,56,29.91,29.76,20,4,20,0.00
2013-5-24,68.9,57.6,44.7,63.5,51.5,37.6,87,80,68,29.97,29.69,25,4,25,0.00
2013-5-25,60.7,51.6,43.8,43.7,37.4,30.9,84,61,36,30.02,29.92,37,6,37,0.00
2013-5-26,71.2,57.3,43.5,37.2,34.3,30.3,68,44,25,30.20,29.99,25,3,25,0.00
2013-5-27,77.3,59.9,41.3,44.6,37.0,31.2,79,47,22,30.26,30.13,14,1,14,0.00
2013-5-28,67.5,59.4,50.2,55.2,49.5,41.6,78,70,48,30.22,30.10,12,0,12,0.00
2013-5-29,91.7,74.8,56.8,68.6,59.8,49.9,88,62,35,30.11,30.01,14,2,14,0.00
2013-5-30,94.5,81.6,69.5,69.5,63.9,59.5,79,57,33,30.14,30.05,13,2,13,0.00
2013-5-31,92.5,80.5,69.7,68.1,64.6,60.3,83,61,36,30.13,30.00,15,2,15,0.00
2013-6-1,92.0,79.5,68.7,68.8,64.3,60.8,82,62,37,30.04,29.92,20,3,20,0.00
2013-6-2,88.7,76.6,69.7,71.1,65.6,62.9,86,70,47,29.94,29.81,20,3,20,0.00
2013-6-3,78.2,71.0,66.4,69.1,66.0,62.1,89,85,71,29.87,29.78,11,1,11,0.00
2013-6-4,79.8,65.9,56.3,63.6,47.6,42.3,88,55,30,30.09,29.86,20,2,20,0.00
2013-6-5,75.2,62.6,47.9,56.2,50.1,41.4,85,65,45,30.19,30.08,11,1,11,0.00
2013-6-6,70.3,63.7,54.9,60.4,56.9,50.6,89,79,60,30.12,29.97,14,2,14,0.00
2013-6-7,71.0,65.8,62.3,67.8,62.4,57.8,90,89,85,29.98,29.54,17,2,17,0.00
2013-6-8,79.0,69.0,58.3,65.6,61.5,55.1,90,78,61,30.05,29.51,17,2,17,0.00
2013-6-9,86.4,71.8,60.0,64.3,59.8,56.3,89,68,40,30.17,30.05,11,1,11,0.00
2013-6-10,70.3,68.1,63.8,66.5,63.0,57.4,88,84,74,30.15,29.80,14,2,14,0.00
2013-6-11,83.8,75.1,68.3,67.2,63.7,57.9,88,69,50,29.81,29.64,21,2,21,0.00
2013-6-12,83.2,72.9,62.7,59.0,55.9,51.7,76,57,36,29.85,29.73,22,3,22,0.00
2013-6-13,77.5,67.4,60.6,64.4,57.9,50.6,84,72,56,29.84,29.38,18,2,18,0.00
2013-6-14,74.8,61.5,54.6,56.3,50.2,45.8,84,67,47,29.90,29.45,21,3,21,0.00
2013-6-15,83.8,69.2,56.2,56.8,51.6,44.2,77,56,33,30.01,29.89,17,1,17,0.00
2013-6-16,86.2,72.4,59.4,66.0,58.2,50.8,81,62,41,30.00,29.80,18,2,18,0.00
2013-6-17,88.5,75.0,64.2,67.0,63.0,58.3,88,68,43,29.92,29.83,15,1,15,0.00
2013-6-18,78.0,67.8,63.0,66.4,60.7,56.6,86,78,61,29.90,29.78,14,1,14,0.00
2013-6-19,79.5,67.9,56.9,60.3,53.5,46.6,87,63,33,30.16,29.84,16,2,16,0.00
2013-6-20,79.0,66.7,54.2,56.4,50.8,46.5,83,59,38,30.27,30.15,16,2,16,0.00
2013-6-21,79.7,67.6,55.1,57.5,51.2,46.5,77,58,37,30.31,30.24,15,1,15,0.00
2013-6-22,81.6,68.8,54.0,61.5,53.7,42.7,79,60,40,30.26,30.14,12,1,12,0.00
2013-6-23,86.0,74.1,59.4,71.3,63.3,49.9,88,70,53,30.20,30.07,15,2,15,0.00
2013-6-24,93.1,78.3,69.6,73.9,67.7,56.7,90,72,40,30.08,29.97,16,1,16,0.00
2013-6-25,93.2,79.1,67.3,71.3,65.7,61.1,85,65,42,30.00,29.83,14,1,14,0.00
2013-6-26,93.7,80.4,71.1,70.9,65.5,61.7,87,62,40,29.87,29.76,13,2,13,0.00
2013-6-27,85.5,76.8,70.8,73.2,69.6,67.4,90,79,61,29.82,29.59,17,2,17,0.00
2013-6-28,89.3,77.7,69.9,71.1,68.1,65.2,88,74,48,29.60,29.48,13,2,13,0.00
2013-6-29,84.5,74.7,67.0,70.9,67.4,63.4,90,79,59,29.70,29.49,14,1,14,0.00
2013-6-30,84.0,74.8,69.0,73.6,69.2,64.7,89,83,68,29.90,29.70,12,1,12,0.00
2013-7-1,83.6,75.5,73.3,73.6,70.0,68.5,87,83,67,30.04,29.89,12,2,14,0.00
2013-7-2,84.8,77.1,73.1,72.7,70.1,68.4,86,79,65,30.19,30.04,13,2,13,0.00
2013-7-3,84.5,76.7,70.0,76.6,70.2,66.0,88,81,66,30.25,30.16,11,1,11,0.00
2013-7-4,91.2,80.3,72.4,73.5,70.3,67.7,88,73,49,30.26,30.16,13,1,13,0.00
2013-7-5,93.3,81.9,71.6,72.8,69.5,66.8,88,68,46,30.22,30.10,14,1,14,0.00
2013-7-6,97.1,84.2,74.1,74.2,70.1,62.2,87,65,39,30.15,30.02,13,2,13,0.00
2013-7-7,95.8,84.4,74.0,73.6,70.2,66.3,84,64,45,30.07,29.93,14,2,14,0.00
2013-7-8,90.8,77.4,69.8,69.6,65.3,55.7,81,67,49,30.06,29.99,14,1,14,0.00
2013-7-9,90.0,77.9,69.0,72.5,67.0,61.1,84,70,49,30.07,29.99,11,1,11,0.00
2013-7-10,88.7,79.4,71.4,74.9,70.5,66.9,88,75,56,30.03,29.82,14,2,14,0.00
2013-7-11,87.2,78.2,74.6,72.4,69.7,67.7,86,76,54,29.90,29.81,12,1,12,0.00
2013-7-12,76.5,73.1,69.6,69.8,64.7,59.9,86,76,58,30.04,29.89,18,3,18,0.00
2013-7-13,87.0,77.7,70.9,74.2,70.3,66.5,87,78,63,30.28,30.04,14,1,14,0.00
2013-7-14,90.9,80.5,73.4,74.4,70.9,68.5,86,73,55,30.33,30.24,9,1,11,0.00
2013-7-15,97.0,84.0,73.6,73.8,70.3,66.9,84,66,44,30.26,30.11,12,1,12,0.00
2013-7-16,97.3,84.2,74.6,72.1,68.0,63.2,84,61,35,30.18,30.11,15,1,15,0.00
2013-7-17,97.0,83.3,71.9,72.3,68.3,65.2,87,63,37,30.17,30.07,10,1,10,0.00
2013-7-18,101.3,86.2,74.7,76.8,71.4,66.7,83,63,40,30.08,29.94,13,1,13,0.00
2013-7-19,99.2,87.3,78.8,77.6,74.1,70.2,86,67,42,29.98,29.81,14,2,14,0.00
2013-7-20,95.3,85.4,76.6,74.4,72.2,67.2,84,66,43,29.85,29.72,15,2,15,0.00
2013-7-21,88.5,78.0,71.6,73.0,69.9,65.7,89,77,50,29.94,29.82,13,1,13,0.00
2013-7-22,86.0,78.6,73.0,75.7,72.9,69.6,91,83,68,29.93,29.77,12,1,12,0.00
2013-7-23,89.8,78.8,72.7,77.9,72.0,69.0,91,80,61,29.77,29.56,16,1,16,0.00
2013-7-24,87.5,77.2,69.6,69.5,65.5,55.0,89,69,51,29.89,29.62,14,2,14,0.00
2013-7-25,72.2,66.6,64.5,58.2,56.1,53.3,79,69,56,30.02,29.88,17,3,17,0.00
2013-7-26,81.8,71.4,64.7,65.7,61.2,57.5,84,71,52,30.05,29.96,12,2,12,0.00
2013-7-27,83.5,72.6,62.6,65.8,62.1,58.3,88,72,46,30.05,29.95,17,2,17,0.00
2013-7-28,80.2,72.1,62.0,68.5,64.0,54.4,86,76,59,29.98,29.91,10,2,16,0.00
2013-7-29,87.8,74.5,63.1,69.0,62.9,51.9,89,70,38,30.10,29.93,11,1,14,0.00
2013-7-30,83.8,70.8,58.0,58.5,55.5,52.3,83,61,37,30.16,30.09,13,1,13,0.00
2013-7-31,82.3,71.1,59.1,62.2,58.1,52.9,84,65,44,30.15,30.03,10,1,10,0.00
2013-8-1,75.5,70.6,68.1,66.8,64.0,60.6,89,80,69,30.03,29.81,14,1,14,0.00
2013-8-2,86.7,75.3,67.8,67.0,63.5,58.3,89,69,41,29.92,29.79,12,1,12,0.00
2013-8-3,79.0,71.5,66.0,68.1,64.3,61.4,87,78,60,29.93,29.86,14,1,14,0.00
2013-8-4,81.5,71.7,61.3,62.5,56.0,48.8,89,61,35,29.97,29.84,17,2,17,0.00
2013-8-5,82.3,68.3,58.5,56.1,50.6,44.4,75,55,30,30.04,29.97,12,1,12,0.00
2013-8-6,81.0,69.5,56.1,60.8,54.8,48.1,83,62,37,30.11,30.03,13,1,13,0.00
2013-8-7,79.0,72.0,67.6,65.9,63.0,59.7,81,74,61,30.13,30.06,15,2,15,0.00
2013-8-8,83.5,75.3,70.8,72.8,68.5,64.9,87,80,66,30.06,29.99,15,1,15,0.00
2013-8-9,88.5,78.8,74.1,74.5,71.3,67.5,88,78,58,30.02,29.81,14,2,14,0.00
2013-8-10,86.7,76.9,71.2,72.0,66.0,61.0,89,71,47,30.04,29.85,11,1,11,0.00
2013-8-11,82.2,72.1,61.2,64.0,59.7,54.6,86,67,46,30.11,30.02,11,1,11,0.00
2013-8-12,83.3,72.5,65.4,67.9,63.5,58.9,86,74,50,30.03,29.92,11,0,11,0.00
2013-8-13,84.0,72.8,66.5,70.0,65.2,58.8,84,78,51,29.92,29.70,17,1,17,0.00
2013-8-14,76.0,67.6,57.3,65.3,51.6,44.9,83,58,39,30.04,29.73,22,3,22,0.00
2013-8-15,78.6,64.7,52.1,53.8,50.2,46.3,86,62,35,30.14,30.03,13,1,13,0.00
2013-8-16,80.5,67.4,55.2,55.2,51.2,46.9,78,59,34,30.20,30.11,11,1,11,0.00
2013-8-17,81.0,67.2,54.7,59.5,53.4,47.1,78,63,41,30.26,30.19,10,0,10,0.00
2013-8-18,78.3,68.2,60.8,62.8,57.3,54.3,82,70,46,30.25,30.11,13,1,13,0.00
2013-8-19,78.4,68.8,58.8,62.0,57.8,52.0,83,69,50,30.14,30.04,11,1,11,0.00
2013-8-20,86.5,73.8,64.3,67.7,63.2,57.9,84,71,47,30.12,30.05,12,1,12,0.00
2013-8-21,92.0,77.4,67.1,71.2,65.4,59.2,86,69,38,30.17,30.06,11,1,11,0.00
2013-8-22,83.8,74.5,69.5,72.5,67.4,64.2,87,79,63,30.07,29.88,10,1,10,0.00
2013-8-23,82.0,72.4,62.5,66.1,62.2,55.5,88,72,44,30.07,29.86,11,1,11,0.00
2013-8-24,80.3,68.3,58.2,60.3,56.7,51.8,83,68,44,30.33,30.06,13,1,13,0.00
2013-8-25,83.5,67.2,53.5,60.2,51.8,47.8,84,61,35,30.40,30.25,11,1,11,0.00
2013-8-26,86.5,72.9,63.5,62.6,58.3,49.6,74,61,43,30.25,29.92,15,2,15,0.00
2013-8-27,91.0,77.2,69.0,68.0,64.0,61.0,82,65,40,29.92,29.83,14,1,14,0.00
2013-8-28,80.8,73.3,66.0,71.7,67.5,61.6,89,82,66,29.89,29.82,7,0,7,0.00
2013-8-29,79.8,72.7,68.7,68.2,65.0,62.6,88,77,59,30.02,29.85,13,1,13,0.00
2013-8-30,84.2,74.4,68.1,67.6,65.0,62.3,85,73,55,30.01,29.87,11,1,11,0.00
2013-8-31,88.6,77.2,68.2,72.8,68.4,64.2,88,75,56,29.89,29.79,14,2,14,0.00
2013-9-1,87.5,77.3,72.3,73.4,70.4,68.2,89,80,58,29.85,29.77,17,1,17,0.00
2013-9-2,84.5,75.1,69.9,73.9,70.6,66.0,89,86,64,29.79,29.71,7,0,7,0.00
2013-9-3,83.7,73.7,63.9,71.4,64.8,55.3,88,75,50,29.88,29.70,14,1,14,0.00
2013-9-4,84.0,69.6,59.8,57.7,54.5,49.6,83,61,36,30.01,29.88,14,1,14,0.00
2013-9-5,79.0,68.7,55.6,59.3,52.0,40.9,77,57,38,30.12,29.94,13,2,13,0.00
2013-9-6,74.0,60.6,49.6,48.2,44.3,39.9,75,57,34,30.23,30.12,15,1,15,0.00
2013-9-7,78.7,62.4,47.1,53.9,47.6,41.3,84,61,32,30.13,29.91,14,1,14,0.00
2013-9-8,85.0,72.3,59.9,63.9,56.1,45.3,76,58,41,30.05,29.81,19,2,19,0.00
2013-9-9,74.5,64.7,52.4,57.0,50.0,42.3,80,60,44,30.22,30.05,14,1,14,0.00
2013-9-10,88.0,76.4,66.8,70.5,65.1,57.2,78,69,54,30.18,30.05,12,1,12,0.00
2013-9-11,94.5,81.2,71.8,74.2,69.5,66.7,85,69,49,30.12,29.98,15,1,15,0.00
2013-9-12,90.3,78.2,71.0,71.9,68.0,63.1,87,72,47,30.00,29.69,15,2,15,0.00
2013-9-13,78.9,69.8,60.2,65.9,59.1,47.3,90,70,45,29.84,29.63,16,2,16,0.00
2013-9-14,69.2,58.7,49.3,47.5,44.6,40.8,77,60,44,30.13,29.84,17,2,17,0.00
2013-9-15,76.7,58.9,42.9,52.8,44.4,36.6,81,61,33,30.22,30.08,12,1,12,0.00
2013-9-16,72.0,61.9,56.6,57.6,53.2,47.4,80,73,53,30.19,30.03,13,1,13,0.00
2013-9-17,66.0,55.8,44.3,47.9,38.6,33.3,75,54,36,30.41,30.19,18,2,18,0.00
2013-9-18,70.0,55.2,41.4,47.9,42.4,34.3,80,64,41,30.34,30.19,11,1,11,0.00
2013-9-19,75.2,59.7,46.5,53.9,48.3,41.3,85,68,40,30.20,30.08,15,1,15,0.00
2013-9-20,77.3,62.9,51.2,59.1,52.1,46.2,86,70,47,30.09,30.00,14,1,14,0.00
2013-9-21,77.8,65.5,50.0,64.7,56.8,43.4,84,74,51,30.02,29.68,22,2,22,0.00
2013-9-22,72.2,64.4,54.2,63.3,50.6,39.3,83,63,38,29.90,29.64,17,3,17,0.00
2013-9-23,69.4,55.8,43.2,43.5,39.8,31.5,79,56,38,30.03,29.90,14,2,14,0.00
2013-9-24,73.7,56.1,44.1,48.7,41.0,31.2,74,59,37,30.05,29.88,16,1,16,0.00
2013-9-25,74.5,58.7,46.3,53.3,45.8,38.5,81,64,38,29.95,29.87,8,1,8,0.00
2013-9-26,71.2,57.9,47.6,57.4,48.6,41.2,84,72,53,30.08,29.93,9,1,9,0.00
2013-9-27,71.6,61.2,52.4,54.3,49.1,45.7,80,65,46,30.25,30.08,13,1,13,0.00
2013-9-28,74.3,63.9,54.3,53.1,49.1,41.6,78,60,42,30.30,30.21,15,1,15,0.00
2013-9-29,72.2,59.5,49.1,55.8,47.2,40.3,81,65,44,30.21,30.06,13,1,13,0.00
2013-9-30,74.0,59.0,48.3,54.6,48.0,40.1,82,68,48,30.07,29.98,10,1,10,0.00
2013-10-1,81.7,65.1,52.5,58.3,51.7,42.3,82,64,42,30.01,29.90,14,1,14,0.00
2013-10-2,85.1,69.6,57.5,59.6,56.8,52.6,86,66,39,30.01,29.91,17,1,17,0.00
2013-10-3,77.7,67.1,58.1,58.2,54.1,48.3,84,65,43,30.11,30.01,10,0,10,0.00
2013-10-4,87.1,71.2,57.2,65.6,58.3,45.8,81,65,42,30.06,29.96,9,0,9,0.00
2013-10-5,75.0,67.9,65.0,63.4,61.4,59.7,86,80,66,30.08,30.00,9,1,11,0.00
2013-10-6,73.8,68.2,65.2,66.7,63.6,60.9,87,85,78,30.08,30.00,11,1,11,0.00
2013-10-7,78.5,68.9,59.1,68.0,62.4,51.3,86,80,66,30.01,29.80,25,3,25,0.00
2013-10-8,68.8,58.0,50.1,52.5,44.3,41.1,79,62,40,30.28,29.99,17,1,17,0.00
2013-10-9,62.7,60.2,51.8,49.3,46.8,41.9,77,62,51,30.34,30.23,30,4,30,0.00
2013-10-10,63.4,60.3,56.9,57.4,53.7,47.8,84,79,64,30.23,30.00,25,5,25,0.00
2013-10-11,64.5,62.6,61.5,58.5,57.2,56.1,85,83,76,30.04,29.94,26,4,26,0.00
2013-10-12,69.7,63.4,60.6,56.3,53.5,49.4,82,70,57,30.22,30.01,24,5,24,0.00
2013-10-13,67.2,60.9,57.6,53.7,49.2,46.4,76,66,52,30.35,30.21,23,4,23,0.00
2013-10-14,66.3,56.5,46.3,51.9,46.7,39.8,85,70,55,30.34,30.24,11,1,11,0.00
2013-10-15,71.5,56.3,45.9,54.1,45.2,40.4,86,68,44,30.25,30.08,14,1,14,0.00
2013-10-16,66.9,61.0,54.3,54.9,52.3,47.2,79,74,60,30.09,29.92,8,1,8,0.00
2013-10-17,72.8,64.6,60.4,59.1,55.7,52.3,80,73,60,29.93,29.70,9,1,9,0.00
2013-10-18,68.5,59.6,46.5,57.5,43.7,35.8,77,57,38,29.99,29.70,19,2,19,0.00
2013-10-19,65.7,52.9,41.0,53.2,43.8,33.8,84,72,53,29.99,29.76,10,0,10,0.00
2013-10-20,64.8,53.3,42.8,53.1,38.3,32.3,84,59,33,30.08,29.76,15,2,15,0.00
2013-10-21,69.0,51.7,38.2,44.2,37.7,30.3,81,62,32,30.15,29.99,15,1,15,0.00
2013-10-22,71.3,54.8,43.4,50.4,42.8,35.9,83,66,39,29.99,29.76,18,1,18,0.00
2013-10-23,52.2,47.2,40.1,47.0,39.5,32.1,83,75,64,29.81,29.59,15,1,15,0.00
2013-10-24,53.7,42.5,34.6,34.5,29.1,23.9,82,62,33,30.03,29.76,16,1,16,0.00
2013-10-25,55.2,42.4,34.4,32.0,27.5,24.3,69,57,36,30.24,30.03,16,2,16,0.00
2013-10-26,57.5,43.5,29.7,32.3,28.1,21.1,76,57,31,30.23,29.90,22,2,22,0.00
2013-10-27,59.8,48.3,37.2,32.9,30.6,27.0,71,52,33,30.13,29.87,20,2,20,0.00
2013-10-28,66.8,46.2,31.6,36.5,30.6,20.2,73,57,33,30.28,30.12,11,1,11,0.00
2013-10-29,60.2,46.9,38.6,44.7,36.1,30.0,79,67,49,30.37,30.28,16,1,16,0.00
2013-10-30,56.7,47.6,36.8,49.9,40.4,28.4,80,76,70,30.33,30.18,4,0,4,0.00
2013-10-31,68.8,60.8,50.2,58.1,52.0,43.2,84,73,61,30.22,29.82,15,2,15,0.00
2013-11-1,70.8,64.2,58.4,59.4,55.7,49.8,82,74,64,29.82,29.58,24,3,24,0.00
2013-11-2,69.5,58.7,50.8,58.3,46.6,36.9,86,65,47,29.78,29.61,10,1,10,0.00
2013-11-3,54.2,46.2,34.4,38.7,30.2,14.5,72,54,38,30.42,29.78,17,3,17,0.00
2013-11-4,49.9,38.5,31.6,24.5,19.3,12.2,57,46,36,30.62,30.42,17,2,17,0.00
2013-11-5,58.2,45.3,34.5,38.4,30.7,22.0,71,57,45,30.62,30.47,12,1,12,0.00
2013-11-6,63.2,50.3,31.9,52.9,38.9,19.6,81,66,48,30.48,30.07,13,2,13,0.00
2013-11-7,64.0,56.1,35.5,57.0,48.2,22.0,83,75,53,30.07,29.76,20,2,20,0.00
2013-11-8,49.7,41.5,31.5,27.7,22.0,16.8,65,46,35,30.24,29.95,24,2,24,0.00
2013-11-9,52.3,41.2,29.2,32.6,24.0,15.4,73,52,34,30.30,30.00,12,1,12,0.00
2013-11-10,63.1,50.7,42.5,33.5,28.8,22.9,62,44,29,30.08,29.82,26,3,26,0.00
2013-11-11,58.4,48.2,35.1,32.8,26.4,19.0,59,43,29,30.23,29.98,20,3,20,0.00
2013-11-12,50.5,39.0,29.2,34.4,21.7,10.0,68,50,38,30.29,29.92,29,4,29,0.00
2013-11-13,41.1,30.6,22.0,14.0,10.6,5.8,58,44,26,30.37,30.28,23,2,23,0.00
2013-11-14,56.2,40.4,27.4,20.1,14.4,9.2,57,37,16,30.30,30.18,19,2,19,0.00
2013-11-15,59.2,42.9,32.8,30.9,26.0,18.9,66,53,33,30.26,30.16,7,0,7,0.00
2013-11-16,54.8,45.6,36.7,43.8,35.5,26.2,79,68,59,30.34,30.23,8,0,8,0.00
2013-11-17,66.0,55.6,47.0,58.3,47.5,38.3,85,74,61,30.25,29.79,9,1,9,0.00
2013-11-18,68.6,59.1,45.8,56.8,40.4,24.9,80,53,27,29.79,29.63,16,3,16,0.00
2013-11-19,51.4,43.7,28.8,25.0,21.1,16.6,61,41,34,30.34,29.79,24,4,24,0.00
2013-11-20,49.7,34.0,25.1,20.8,16.3,13.0,68,50,27,30.58,30.33,16,1,16,0.00
2013-11-21,54.4,42.6,29.2,35.9,28.5,15.7,69,58,46,30.58,30.38,12,1,12,0.00
2013-11-22,58.8,52.1,44.3,47.8,38.9,32.3,75,61,52,30.38,29.91,9,1,13,0.00
2013-11-23,53.5,43.5,32.4,40.8,22.3,10.0,62,43,33,30.03,29.91,26,4,26,0.00
2013-11-24,32.3,25.5,17.2,10.0,-0.8,-4.5,43,31,26,30.41,30.01,35,6,35,0.00
2013-11-25,37.2,26.8,15.8,12.8,6.4,-2.1,57,42,28,30.52,30.35,13,1,13,0.00
2013-11-26,53.4,39.3,30.0,46.2,26.6,13.1,81,61,36,30.36,29.70,17,1,17,0.00
2013-11-27,62.8,47.3,33.9,57.0,37.8,14.9,84,70,45,29.79,29.32,18,5,28,0.00
2013-11-28,38.4,31.1,24.8,17.1,10.9,8.2,57,43,31,30.48,29.78,24,4,24,0.00
2013-11-29,43.2,31.6,23.8,17.4,13.9,10.7,62,48,34,30.71,30.46,16,1,16,0.00
2013-11-30,43.1,33.5,24.8,23.9,16.7,7.7,62,50,40,30.71,30.34,12,1,12,0.00
2013-12-1,54.2,40.3,29.3,30.6,25.8,18.3,68,57,39,30.34,30.01,9,1,9,0.00
2013-12-2,57.8,38.5,30.6,30.6,25.4,20.9,72,60,32,30.01,29.86,7,0,7,0.00
2013-12-3,57.4,42.1,31.7,38.1,31.8,23.6,77,68,44,30.00,29.85,8,0,8,0.00
2013-12-4,53.4,43.0,31.1,41.8,35.0,24.1,80,73,61,30.11,30.00,7,0,7,0.00
2013-12-5,62.4,54.0,46.4,52.2,45.5,39.8,82,73,58,30.11,29.93,15,1,15,0.00
2013-12-6,62.9,50.4,38.7,55.2,40.7,26.0,78,69,61,30.12,29.88,15,3,15,0.00
2013-12-7,41.4,36.2,27.9,30.5,24.8,16.3,76,64,50,30.50,30.06,21,3,21,0.00
2013-12-8,38.2,30.3,25.9,32.4,19.7,9.7,80,65,50,30.57,30.30,10,1,10,0.00
2013-12-9,46.9,39.4,33.4,42.1,34.3,28.3,84,82,77,30.32,29.96,14,2,14,0.00
2013-12-10,34.9,31.7,25.4,29.2,26.3,18.8,82,80,76,30.16,29.85,11,1,11,0.00
2013-12-11,34.2,26.1,19.8,20.0,15.0,9.4,77,63,50,30.36,30.16,15,1,15,0.00
2013-12-12,29.1,21.7,15.8,12.6,4.8,-0.5,70,48,33,30.36,30.18,22,2,22,0.00
2013-12-13,38.4,26.6,15.5,14.0,9.4,1.9,60,49,34,30.33,30.15,16,1,16,0.00
2013-12-14,50.0,36.2,26.0,43.1,26.5,14.0,77,68,60,30.42,29.66,19,2,19,0.00
2013-12-15,54.7,38.8,30.2,47.1,27.6,15.5,78,64,50,29.88,29.47,23,3,23,0.00
2013-12-16,32.4,26.8,16.7,18.0,7.2,0.7,57,44,32,30.24,29.86,16,3,19,0.00
2013-12-17,43.7,31.2,21.3,34.1,18.9,5.3,73,61,43,30.22,29.90,14,1,14,0.00
2013-12-18,39.1,29.4,23.1,18.8,14.6,11.2,66,54,40,30.19,29.90,19,2,19,0.00
2013-12-19,49.0,37.2,21.4,26.7,19.8,9.6,67,50,36,30.21,30.04,8,1,12,0.00
2013-12-20,56.2,47.4,32.8,40.3,29.4,22.2,68,50,36,30.10,29.98,15,2,15,0.00
2013-12-21,69.9,59.1,51.1,50.3,43.6,38.8,66,57,46,30.02,29.90,25,3,25,0.00
2013-12-22,72.8,64.3,61.6,60.7,53.2,49.1,80,67,53,29.99,29.84,23,5,23,0.00
2013-12-23,63.4,56.4,42.5,58.1,48.7,32.3,83,75,68,30.14,29.88,23,2,23,0.00
2013-12-24,42.6,36.4,27.0,32.4,20.5,16.3,68,53,38,30.35,30.08,21,4,21,0.00
2013-12-25,37.9,25.8,19.1,17.1,8.0,2.9,66,47,27,30.52,30.35,22,2,22,0.00
2013-12-26,42.9,29.3,20.2,23.3,18.7,12.4,78,65,44,30.42,30.16,14,1,14,0.00
2013-12-27,45.9,30.5,20.9,21.9,16.7,11.8,81,60,28,30.39,30.26,16,1,16,0.00
2013-12-28,58.5,40.6,22.8,26.5,22.6,15.4,75,52,28,30.31,30.08,18,2,18,0.00
2013-12-29,58.6,44.7,38.7,53.1,34.8,23.8,84,69,48,30.08,29.38,23,2,23,0.00
2013-12-30,47.4,38.0,25.4,36.6,26.6,8.9,81,65,46,30.17,29.71,18,3,18,0.00
2013-12-31,39.4,29.2,21.1,22.3,11.8,6.9,59,48,41,30.31,30.06,18,2,18,0.00
2014-1-1,44.4,31.1,19.9,27.9,15.3,6.1,69,52,33,30.42,30.20,11,1,11,0.00
2014-1-2,40.7,33.2,24.6,33.0,26.5,19.3,84,76,69,30.20,29.58,21,5,21,0.00